sensor_id;sensor_type;location;lat;lon;timestamp;P1;durP1;ratioP1;P2;durP2;ratioP2
5871;SDS011;2962;51.312;7.378;2022-07-29T00:00:25;3.43;;;1.10;;
5871;SDS011;2962;51.312;7.378;2022-07-29T00:02:51;3.27;;;1.30;;
5871;SDS011;2962;51.312;7.378;2022-07-29T00:05:17;2.60;;;1.47;;
5871;SDS011;2962;51.312;7.378;2022-07-29T00:07:42;6.00;;;1.30;;
5871;SDS011;2962;51.312;7.378;2022-07-29T00:10:07;5.43;;;1.27;;
5871;SDS011;2962;51.312;7.378;2022-07-29T00:12:33;6.00;;;1.40;;
5871;SDS011;2962;51.312;7.378;2022-07-29T00:14:58;5.00;;;1.17;;
5871;SDS011;2962;51.312;7.378;2022-07-29T00:17:24;4.93;;;1.43;;
5871;SDS011;2962;51.312;7.378;2022-07-29T00:19:49;3.57;;;1.23;;
5871;SDS011;2962;51.312;7.378;2022-07-29T00:22:14;1.23;;;1.23;;
5871;SDS011;2962;51.312;7.378;2022-07-29T00:24:40;6.73;;;2.03;;
5871;SDS011;2962;51.312;7.378;2022-07-29T00:27:05;9.40;;;2.03;;
5871;SDS011;2962;51.312;7.378;2022-07-29T00:29:30;3.87;;;1.30;;
5871;SDS011;2962;51.312;7.378;2022-07-29T00:31:56;7.30;;;1.23;;
5871;SDS011;2962;51.312;7.378;2022-07-29T00:34:21;4.10;;;1.73;;
5871;SDS011;2962;51.312;7.378;2022-07-29T00:37:04;2.77;;;1.30;;
5871;SDS011;2962;51.312;7.378;2022-07-29T00:39:30;4.60;;;1.60;;
5871;SDS011;2962;51.312;7.378;2022-07-29T00:41:55;4.27;;;2.30;;
5871;SDS011;2962;51.312;7.378;2022-07-29T00:44:21;6.33;;;1.27;;
5871;SDS011;2962;51.312;7.378;2022-07-29T00:46:46;7.63;;;1.33;;
5871;SDS011;2962;51.312;7.378;2022-07-29T00:49:11;7.67;;;1.80;;
5871;SDS011;2962;51.312;7.378;2022-07-29T00:51:38;5.53;;;1.60;;
5871;SDS011;2962;51.312;7.378;2022-07-29T00:54:04;6.30;;;1.50;;
5871;SDS011;2962;51.312;7.378;2022-07-29T00:56:30;7.90;;;1.43;;
5871;SDS011;2962;51.312;7.378;2022-07-29T00:58:56;4.33;;;1.20;;
5871;SDS011;2962;51.312;7.378;2022-07-29T01:01:23;4.53;;;1.87;;
5871;SDS011;2962;51.312;7.378;2022-07-29T01:03:48;4.67;;;1.33;;
5871;SDS011;2962;51.312;7.378;2022-07-29T01:06:14;3.53;;;1.20;;
5871;SDS011;2962;51.312;7.378;2022-07-29T01:08:41;4.23;;;1.67;;
5871;SDS011;2962;51.312;7.378;2022-07-29T01:11:07;7.80;;;1.60;;
5871;SDS011;2962;51.312;7.378;2022-07-29T01:13:32;4.00;;;1.23;;
5871;SDS011;2962;51.312;7.378;2022-07-29T01:15:59;4.07;;;1.43;;
5871;SDS011;2962;51.312;7.378;2022-07-29T01:18:37;9.00;;;1.67;;
5871;SDS011;2962;51.312;7.378;2022-07-29T01:21:19;1.87;;;1.47;;
5871;SDS011;2962;51.312;7.378;2022-07-29T01:29:32;2.10;;;1.63;;
5871;SDS011;2962;51.312;7.378;2022-07-29T01:32:05;10.83;;;2.13;;
5871;SDS011;2962;51.312;7.378;2022-07-29T01:34:53;3.43;;;1.60;;
5871;SDS011;2962;51.312;7.378;2022-07-29T01:37:32;3.20;;;1.47;;
5871;SDS011;2962;51.312;7.378;2022-07-29T01:40:03;2.00;;;1.07;;
5871;SDS011;2962;51.312;7.378;2022-07-29T01:42:38;3.87;;;1.13;;
5871;SDS011;2962;51.312;7.378;2022-07-29T01:45:15;6.13;;;1.47;;
5871;SDS011;2962;51.312;7.378;2022-07-29T01:48:02;1.47;;;1.30;;
5871;SDS011;2962;51.312;7.378;2022-07-29T01:50:33;6.80;;;1.40;;
5871;SDS011;2962;51.312;7.378;2022-07-29T01:53:05;4.37;;;1.00;;
5871;SDS011;2962;51.312;7.378;2022-07-29T01:55:34;3.00;;;1.17;;
5871;SDS011;2962;51.312;7.378;2022-07-29T01:58:04;4.70;;;1.50;;
5871;SDS011;2962;51.312;7.378;2022-07-29T02:00:32;6.40;;;1.50;;
5871;SDS011;2962;51.312;7.378;2022-07-29T02:02:59;0.80;;;0.80;;
5871;SDS011;2962;51.312;7.378;2022-07-29T02:05:28;1.50;;;1.33;;
5871;SDS011;2962;51.312;7.378;2022-07-29T02:07:57;2.57;;;1.17;;
5871;SDS011;2962;51.312;7.378;2022-07-29T02:10:25;1.70;;;1.20;;
5871;SDS011;2962;51.312;7.378;2022-07-29T02:12:54;4.07;;;1.10;;
5871;SDS011;2962;51.312;7.378;2022-07-29T02:15:21;7.30;;;1.57;;
5871;SDS011;2962;51.312;7.378;2022-07-29T02:17:50;2.97;;;1.17;;
5871;SDS011;2962;51.312;7.378;2022-07-29T02:20:18;11.27;;;1.67;;
5871;SDS011;2962;51.312;7.378;2022-07-29T02:22:44;4.37;;;1.37;;
5871;SDS011;2962;51.312;7.378;2022-07-29T02:25:11;1.53;;;1.20;;
5871;SDS011;2962;51.312;7.378;2022-07-29T02:27:37;3.53;;;1.57;;
5871;SDS011;2962;51.312;7.378;2022-07-29T02:30:04;3.13;;;1.30;;
5871;SDS011;2962;51.312;7.378;2022-07-29T02:32:31;5.57;;;1.70;;
5871;SDS011;2962;51.312;7.378;2022-07-29T02:35:00;2.00;;;1.37;;
5871;SDS011;2962;51.312;7.378;2022-07-29T02:37:26;8.87;;;1.57;;
5871;SDS011;2962;51.312;7.378;2022-07-29T02:39:54;2.93;;;1.40;;
5871;SDS011;2962;51.312;7.378;2022-07-29T02:42:21;2.67;;;1.17;;
5871;SDS011;2962;51.312;7.378;2022-07-29T02:44:48;3.13;;;1.20;;
5871;SDS011;2962;51.312;7.378;2022-07-29T02:47:24;4.93;;;1.53;;
5871;SDS011;2962;51.312;7.378;2022-07-29T02:50:09;4.40;;;1.63;;
5871;SDS011;2962;51.312;7.378;2022-07-29T02:55:16;10.90;;;1.70;;
5871;SDS011;2962;51.312;7.378;2022-07-29T02:57:49;2.13;;;1.97;;
5871;SDS011;2962;51.312;7.378;2022-07-29T03:00:19;2.87;;;1.20;;
5871;SDS011;2962;51.312;7.378;2022-07-29T03:02:49;1.50;;;1.20;;
5871;SDS011;2962;51.312;7.378;2022-07-29T03:05:17;2.30;;;1.40;;
5871;SDS011;2962;51.312;7.378;2022-07-29T03:07:48;4.80;;;1.60;;
5871;SDS011;2962;51.312;7.378;2022-07-29T03:10:18;3.40;;;1.20;;
5871;SDS011;2962;51.312;7.378;2022-07-29T03:12:43;4.03;;;1.37;;
5871;SDS011;2962;51.312;7.378;2022-07-29T03:15:09;3.13;;;1.10;;
5871;SDS011;2962;51.312;7.378;2022-07-29T03:17:35;3.03;;;1.30;;
5871;SDS011;2962;51.312;7.378;2022-07-29T03:20:02;4.00;;;1.20;;
5871;SDS011;2962;51.312;7.378;2022-07-29T03:22:28;7.17;;;1.50;;
5871;SDS011;2962;51.312;7.378;2022-07-29T03:24:54;4.57;;;1.77;;
5871;SDS011;2962;51.312;7.378;2022-07-29T03:27:19;9.10;;;1.60;;
5871;SDS011;2962;51.312;7.378;2022-07-29T03:29:45;1.47;;;1.40;;
5871;SDS011;2962;51.312;7.378;2022-07-29T03:32:10;15.77;;;1.60;;
5871;SDS011;2962;51.312;7.378;2022-07-29T03:34:36;2.27;;;1.20;;
5871;SDS011;2962;51.312;7.378;2022-07-29T03:37:03;15.13;;;1.40;;
5871;SDS011;2962;51.312;7.378;2022-07-29T03:39:29;1.73;;;1.43;;
5871;SDS011;2962;51.312;7.378;2022-07-29T03:41:57;5.50;;;1.40;;
5871;SDS011;2962;51.312;7.378;2022-07-29T03:44:25;2.03;;;1.37;;
5871;SDS011;2962;51.312;7.378;2022-07-29T03:46:53;3.43;;;2.10;;
5871;SDS011;2962;51.312;7.378;2022-07-29T03:49:23;4.03;;;1.77;;
5871;SDS011;2962;51.312;7.378;2022-07-29T03:51:51;1.73;;;1.70;;
5871;SDS011;2962;51.312;7.378;2022-07-29T03:54:16;4.23;;;1.50;;
5871;SDS011;2962;51.312;7.378;2022-07-29T03:56:42;3.37;;;1.43;;
5871;SDS011;2962;51.312;7.378;2022-07-29T03:59:12;2.50;;;1.33;;
5871;SDS011;2962;51.312;7.378;2022-07-29T04:01:38;1.37;;;1.27;;
5871;SDS011;2962;51.312;7.378;2022-07-29T04:04:05;2.73;;;1.27;;
5871;SDS011;2962;51.312;7.378;2022-07-29T04:06:40;2.47;;;1.57;;
5871;SDS011;2962;51.312;7.378;2022-07-29T04:09:07;3.07;;;1.70;;
5871;SDS011;2962;51.312;7.378;2022-07-29T04:11:32;1.50;;;1.30;;
5871;SDS011;2962;51.312;7.378;2022-07-29T04:13:58;4.00;;;1.40;;
5871;SDS011;2962;51.312;7.378;2022-07-29T04:16:24;3.50;;;1.43;;
5871;SDS011;2962;51.312;7.378;2022-07-29T04:18:49;1.73;;;1.63;;
5871;SDS011;2962;51.312;7.378;2022-07-29T04:21:14;2.10;;;1.60;;
5871;SDS011;2962;51.312;7.378;2022-07-29T04:23:39;5.03;;;1.90;;
5871;SDS011;2962;51.312;7.378;2022-07-29T04:26:05;2.13;;;1.63;;
5871;SDS011;2962;51.312;7.378;2022-07-29T04:28:34;5.67;;;1.60;;
5871;SDS011;2962;51.312;7.378;2022-07-29T04:31:00;2.33;;;1.70;;
5871;SDS011;2962;51.312;7.378;2022-07-29T04:33:25;3.30;;;1.40;;
5871;SDS011;2962;51.312;7.378;2022-07-29T04:35:51;3.17;;;1.50;;
5871;SDS011;2962;51.312;7.378;2022-07-29T04:38:16;5.00;;;1.77;;
5871;SDS011;2962;51.312;7.378;2022-07-29T04:40:41;3.90;;;1.70;;
5871;SDS011;2962;51.312;7.378;2022-07-29T04:43:06;5.40;;;1.40;;
5871;SDS011;2962;51.312;7.378;2022-07-29T04:45:32;1.63;;;1.43;;
5871;SDS011;2962;51.312;7.378;2022-07-29T04:47:57;4.60;;;1.80;;
5871;SDS011;2962;51.312;7.378;2022-07-29T04:50:22;2.53;;;1.90;;
5871;SDS011;2962;51.312;7.378;2022-07-29T04:52:48;3.23;;;1.70;;
5871;SDS011;2962;51.312;7.378;2022-07-29T04:55:13;2.10;;;1.50;;
5871;SDS011;2962;51.312;7.378;2022-07-29T04:57:38;2.23;;;1.50;;
5871;SDS011;2962;51.312;7.378;2022-07-29T05:00:04;5.87;;;1.80;;
5871;SDS011;2962;51.312;7.378;2022-07-29T05:02:30;3.90;;;1.60;;
5871;SDS011;2962;51.312;7.378;2022-07-29T05:04:56;3.67;;;1.63;;
5871;SDS011;2962;51.312;7.378;2022-07-29T05:07:21;2.77;;;1.57;;
5871;SDS011;2962;51.312;7.378;2022-07-29T05:09:46;4.43;;;1.77;;
5871;SDS011;2962;51.312;7.378;2022-07-29T05:12:12;2.70;;;2.50;;
5871;SDS011;2962;51.312;7.378;2022-07-29T05:14:37;2.23;;;2.03;;
5871;SDS011;2962;51.312;7.378;2022-07-29T05:17:02;3.90;;;1.90;;
5871;SDS011;2962;51.312;7.378;2022-07-29T05:19:27;5.00;;;1.70;;
5871;SDS011;2962;51.312;7.378;2022-07-29T05:21:53;1.50;;;1.50;;
5871;SDS011;2962;51.312;7.378;2022-07-29T05:24:18;1.63;;;1.53;;
5871;SDS011;2962;51.312;7.378;2022-07-29T05:26:43;3.97;;;1.83;;
5871;SDS011;2962;51.312;7.378;2022-07-29T05:29:09;3.63;;;2.10;;
5871;SDS011;2962;51.312;7.378;2022-07-29T05:31:34;2.53;;;1.80;;
5871;SDS011;2962;51.312;7.378;2022-07-29T05:34:00;4.53;;;2.00;;
5871;SDS011;2962;51.312;7.378;2022-07-29T05:36:25;7.13;;;1.70;;
5871;SDS011;2962;51.312;7.378;2022-07-29T05:38:51;3.00;;;1.90;;
5871;SDS011;2962;51.312;7.378;2022-07-29T05:41:17;4.10;;;1.50;;
5871;SDS011;2962;51.312;7.378;2022-07-29T05:43:46;5.47;;;1.80;;
5871;SDS011;2962;51.312;7.378;2022-07-29T05:46:11;12.87;;;2.20;;
5871;SDS011;2962;51.312;7.378;2022-07-29T05:48:36;1.73;;;1.60;;
5871;SDS011;2962;51.312;7.378;2022-07-29T05:51:02;2.97;;;1.80;;
5871;SDS011;2962;51.312;7.378;2022-07-29T05:53:27;5.40;;;2.50;;
5871;SDS011;2962;51.312;7.378;2022-07-29T05:55:53;2.00;;;1.90;;
5871;SDS011;2962;51.312;7.378;2022-07-29T05:58:19;6.30;;;2.03;;
5871;SDS011;2962;51.312;7.378;2022-07-29T06:00:44;4.83;;;2.03;;
5871;SDS011;2962;51.312;7.378;2022-07-29T06:03:10;3.87;;;1.97;;
5871;SDS011;2962;51.312;7.378;2022-07-29T06:05:35;4.90;;;2.40;;
5871;SDS011;2962;51.312;7.378;2022-07-29T06:08:00;2.73;;;2.60;;
5871;SDS011;2962;51.312;7.378;2022-07-29T06:10:26;7.63;;;1.90;;
5871;SDS011;2962;51.312;7.378;2022-07-29T06:12:51;5.30;;;1.80;;
5871;SDS011;2962;51.312;7.378;2022-07-29T06:15:17;1.90;;;1.90;;
5871;SDS011;2962;51.312;7.378;2022-07-29T06:17:42;2.60;;;2.03;;
5871;SDS011;2962;51.312;7.378;2022-07-29T06:20:08;4.53;;;2.60;;
5871;SDS011;2962;51.312;7.378;2022-07-29T06:22:34;2.53;;;2.30;;
5871;SDS011;2962;51.312;7.378;2022-07-29T06:25:00;2.20;;;1.90;;
5871;SDS011;2962;51.312;7.378;2022-07-29T06:27:26;3.10;;;2.67;;
5871;SDS011;2962;51.312;7.378;2022-07-29T06:29:51;3.53;;;2.53;;
5871;SDS011;2962;51.312;7.378;2022-07-29T06:32:16;6.80;;;1.53;;
5871;SDS011;2962;51.312;7.378;2022-07-29T06:34:41;4.13;;;1.97;;
5871;SDS011;2962;51.312;7.378;2022-07-29T06:37:07;4.27;;;1.93;;
5871;SDS011;2962;51.312;7.378;2022-07-29T06:39:36;4.70;;;2.10;;
5871;SDS011;2962;51.312;7.378;2022-07-29T06:42:03;7.60;;;2.47;;
5871;SDS011;2962;51.312;7.378;2022-07-29T06:44:29;4.60;;;2.40;;
5871;SDS011;2962;51.312;7.378;2022-07-29T06:46:54;3.03;;;2.03;;
5871;SDS011;2962;51.312;7.378;2022-07-29T06:49:20;4.60;;;2.20;;
5871;SDS011;2962;51.312;7.378;2022-07-29T06:51:46;2.67;;;2.30;;
5871;SDS011;2962;51.312;7.378;2022-07-29T06:54:11;3.03;;;2.30;;
5871;SDS011;2962;51.312;7.378;2022-07-29T06:56:36;3.30;;;2.00;;
5871;SDS011;2962;51.312;7.378;2022-07-29T06:59:02;5.47;;;1.90;;
5871;SDS011;2962;51.312;7.378;2022-07-29T07:01:28;2.73;;;2.00;;
5871;SDS011;2962;51.312;7.378;2022-07-29T07:03:53;2.57;;;2.37;;
5871;SDS011;2962;51.312;7.378;2022-07-29T07:06:19;3.50;;;2.13;;
5871;SDS011;2962;51.312;7.378;2022-07-29T07:08:44;4.50;;;2.63;;
5871;SDS011;2962;51.312;7.378;2022-07-29T07:11:10;2.37;;;2.13;;
5871;SDS011;2962;51.312;7.378;2022-07-29T07:13:36;3.83;;;1.80;;
5871;SDS011;2962;51.312;7.378;2022-07-29T07:16:01;3.07;;;2.57;;
5871;SDS011;2962;51.312;7.378;2022-07-29T07:18:27;6.23;;;1.50;;
5871;SDS011;2962;51.312;7.378;2022-07-29T07:20:53;1.83;;;1.70;;
5871;SDS011;2962;51.312;7.378;2022-07-29T07:23:21;6.37;;;1.80;;
5871;SDS011;2962;51.312;7.378;2022-07-29T07:25:47;4.47;;;1.80;;
5871;SDS011;2962;51.312;7.378;2022-07-29T07:28:12;2.10;;;1.90;;
5871;SDS011;2962;51.312;7.378;2022-07-29T07:30:37;5.93;;;1.50;;
5871;SDS011;2962;51.312;7.378;2022-07-29T07:33:04;1.77;;;1.67;;
5871;SDS011;2962;51.312;7.378;2022-07-29T07:35:29;5.90;;;1.80;;
5871;SDS011;2962;51.312;7.378;2022-07-29T07:37:55;3.17;;;2.07;;
5871;SDS011;2962;51.312;7.378;2022-07-29T07:40:20;3.70;;;2.13;;
5871;SDS011;2962;51.312;7.378;2022-07-29T07:42:46;4.30;;;1.53;;
5871;SDS011;2962;51.312;7.378;2022-07-29T07:45:12;4.60;;;2.13;;
5871;SDS011;2962;51.312;7.378;2022-07-29T07:47:38;4.17;;;1.77;;
5871;SDS011;2962;51.312;7.378;2022-07-29T07:50:05;8.17;;;2.10;;
5871;SDS011;2962;51.312;7.378;2022-07-29T07:52:31;2.73;;;1.47;;
5871;SDS011;2962;51.312;7.378;2022-07-29T07:54:57;4.27;;;1.83;;
5871;SDS011;2962;51.312;7.378;2022-07-29T07:57:22;4.60;;;2.33;;
5871;SDS011;2962;51.312;7.378;2022-07-29T07:59:47;7.93;;;1.67;;
5871;SDS011;2962;51.312;7.378;2022-07-29T08:02:13;1.80;;;1.70;;
5871;SDS011;2962;51.312;7.378;2022-07-29T08:04:39;3.07;;;1.73;;
5871;SDS011;2962;51.312;7.378;2022-07-29T08:07:06;2.27;;;2.07;;
5871;SDS011;2962;51.312;7.378;2022-07-29T08:09:32;3.67;;;2.10;;
5871;SDS011;2962;51.312;7.378;2022-07-29T08:11:59;2.07;;;1.90;;
5871;SDS011;2962;51.312;7.378;2022-07-29T08:14:29;3.37;;;2.00;;
5871;SDS011;2962;51.312;7.378;2022-07-29T08:16:55;1.73;;;1.60;;
5871;SDS011;2962;51.312;7.378;2022-07-29T08:19:20;4.33;;;1.63;;
5871;SDS011;2962;51.312;7.378;2022-07-29T08:21:45;6.83;;;3.90;;
5871;SDS011;2962;51.312;7.378;2022-07-29T08:24:10;3.10;;;2.40;;
5871;SDS011;2962;51.312;7.378;2022-07-29T08:26:54;5.83;;;2.17;;
5871;SDS011;2962;51.312;7.378;2022-07-29T08:29:19;3.00;;;2.10;;
5871;SDS011;2962;51.312;7.378;2022-07-29T08:31:45;6.53;;;2.13;;
5871;SDS011;2962;51.312;7.378;2022-07-29T08:34:10;1.87;;;1.77;;
5871;SDS011;2962;51.312;7.378;2022-07-29T08:36:36;1.90;;;1.47;;
5871;SDS011;2962;51.312;7.378;2022-07-29T08:39:02;8.13;;;1.80;;
5871;SDS011;2962;51.312;7.378;2022-07-29T08:41:28;2.10;;;1.87;;
5871;SDS011;2962;51.312;7.378;2022-07-29T08:43:53;2.13;;;1.60;;
5871;SDS011;2962;51.312;7.378;2022-07-29T08:46:20;4.33;;;1.63;;
5871;SDS011;2962;51.312;7.378;2022-07-29T08:48:46;6.90;;;2.10;;
5871;SDS011;2962;51.312;7.378;2022-07-29T08:51:13;4.13;;;1.83;;
5871;SDS011;2962;51.312;7.378;2022-07-29T08:53:40;3.97;;;1.90;;
5871;SDS011;2962;51.312;7.378;2022-07-29T08:56:07;6.17;;;1.80;;
5871;SDS011;2962;51.312;7.378;2022-07-29T08:58:36;4.10;;;1.57;;
5871;SDS011;2962;51.312;7.378;2022-07-29T09:01:01;6.43;;;2.03;;
5871;SDS011;2962;51.312;7.378;2022-07-29T09:03:30;5.40;;;1.87;;
5871;SDS011;2962;51.312;7.378;2022-07-29T09:05:57;5.80;;;1.63;;
5871;SDS011;2962;51.312;7.378;2022-07-29T09:08:23;3.57;;;1.67;;
5871;SDS011;2962;51.312;7.378;2022-07-29T09:10:49;2.80;;;1.60;;
5871;SDS011;2962;51.312;7.378;2022-07-29T09:13:16;3.97;;;1.47;;
5871;SDS011;2962;51.312;7.378;2022-07-29T09:15:41;2.00;;;1.80;;
5871;SDS011;2962;51.312;7.378;2022-07-29T09:18:06;3.27;;;1.63;;
5871;SDS011;2962;51.312;7.378;2022-07-29T09:20:32;8.33;;;4.13;;
5871;SDS011;2962;51.312;7.378;2022-07-29T09:23:16;4.83;;;4.00;;
5871;SDS011;2962;51.312;7.378;2022-07-29T09:25:41;3.43;;;1.60;;
5871;SDS011;2962;51.312;7.378;2022-07-29T09:28:10;2.97;;;1.90;;
5871;SDS011;2962;51.312;7.378;2022-07-29T09:30:49;2.00;;;1.33;;
5871;SDS011;2962;51.312;7.378;2022-07-29T09:33:18;2.50;;;1.97;;
5871;SDS011;2962;51.312;7.378;2022-07-29T09:35:45;2.37;;;2.17;;
5871;SDS011;2962;51.312;7.378;2022-07-29T09:38:12;6.40;;;2.00;;
5871;SDS011;2962;51.312;7.378;2022-07-29T09:40:38;2.30;;;2.10;;
5871;SDS011;2962;51.312;7.378;2022-07-29T09:43:10;9.53;;;2.43;;
5871;SDS011;2962;51.312;7.378;2022-07-29T09:45:37;10.53;;;2.70;;
5871;SDS011;2962;51.312;7.378;2022-07-29T09:48:12;3.27;;;2.23;;
5871;SDS011;2962;51.312;7.378;2022-07-29T09:50:43;4.83;;;3.00;;
5871;SDS011;2962;51.312;7.378;2022-07-29T09:53:10;6.93;;;2.73;;
5871;SDS011;2962;51.312;7.378;2022-07-29T09:55:46;4.30;;;2.77;;
5871;SDS011;2962;51.312;7.378;2022-07-29T09:58:16;6.00;;;2.87;;
5871;SDS011;2962;51.312;7.378;2022-07-29T10:00:43;5.80;;;3.00;;
5871;SDS011;2962;51.312;7.378;2022-07-29T10:03:10;6.73;;;2.87;;
5871;SDS011;2962;51.312;7.378;2022-07-29T10:05:36;3.07;;;2.87;;
5871;SDS011;2962;51.312;7.378;2022-07-29T10:08:01;2.80;;;2.60;;
5871;SDS011;2962;51.312;7.378;2022-07-29T10:10:31;3.20;;;2.90;;
5871;SDS011;2962;51.312;7.378;2022-07-29T10:13:02;3.30;;;2.13;;
5871;SDS011;2962;51.312;7.378;2022-07-29T10:15:31;6.50;;;3.00;;
5871;SDS011;2962;51.312;7.378;2022-07-29T10:17:58;5.73;;;2.80;;
5871;SDS011;2962;51.312;7.378;2022-07-29T10:20:24;4.43;;;2.97;;
5871;SDS011;2962;51.312;7.378;2022-07-29T10:22:52;6.33;;;2.53;;
5871;SDS011;2962;51.312;7.378;2022-07-29T10:25:18;5.63;;;2.70;;
5871;SDS011;2962;51.312;7.378;2022-07-29T10:27:44;2.20;;;2.10;;
5871;SDS011;2962;51.312;7.378;2022-07-29T10:30:11;4.33;;;3.40;;
5871;SDS011;2962;51.312;7.378;2022-07-29T10:32:49;5.60;;;3.20;;
5871;SDS011;2962;51.312;7.378;2022-07-29T10:38:18;3.53;;;2.30;;
5871;SDS011;2962;51.312;7.378;2022-07-29T10:46:42;3.60;;;2.70;;
5871;SDS011;2962;51.312;7.378;2022-07-29T10:49:17;3.70;;;2.83;;
5871;SDS011;2962;51.312;7.378;2022-07-29T10:54:15;5.30;;;2.90;;
5871;SDS011;2962;51.312;7.378;2022-07-29T10:56:40;6.10;;;3.27;;
5871;SDS011;2962;51.312;7.378;2022-07-29T11:01:48;8.13;;;2.70;;
5871;SDS011;2962;51.312;7.378;2022-07-29T11:07:10;3.33;;;2.30;;
5871;SDS011;2962;51.312;7.378;2022-07-29T11:09:37;6.60;;;2.70;;
5871;SDS011;2962;51.312;7.378;2022-07-29T11:12:03;2.90;;;2.70;;
5871;SDS011;2962;51.312;7.378;2022-07-29T11:17:18;10.97;;;2.80;;
5871;SDS011;2962;51.312;7.378;2022-07-29T11:19:44;7.23;;;2.77;;
5871;SDS011;2962;51.312;7.378;2022-07-29T11:22:10;3.10;;;2.37;;
5871;SDS011;2962;51.312;7.378;2022-07-29T11:24:36;5.30;;;2.87;;
5871;SDS011;2962;51.312;7.378;2022-07-29T11:27:05;2.53;;;2.27;;
5871;SDS011;2962;51.312;7.378;2022-07-29T11:29:31;6.47;;;2.57;;
5871;SDS011;2962;51.312;7.378;2022-07-29T11:32:07;4.10;;;2.53;;
5871;SDS011;2962;51.312;7.378;2022-07-29T11:34:38;4.73;;;2.87;;
5871;SDS011;2962;51.312;7.378;2022-07-29T11:39:38;3.30;;;2.73;;
5871;SDS011;2962;51.312;7.378;2022-07-29T11:47:35;6.23;;;3.10;;
5871;SDS011;2962;51.312;7.378;2022-07-29T11:50:03;9.33;;;3.13;;
5871;SDS011;2962;51.312;7.378;2022-07-29T11:52:32;5.37;;;2.23;;
5871;SDS011;2962;51.312;7.378;2022-07-29T11:55:07;7.67;;;3.10;;
5871;SDS011;2962;51.312;7.378;2022-07-29T11:57:38;5.83;;;3.00;;
5871;SDS011;2962;51.312;7.378;2022-07-29T12:00:11;3.20;;;2.60;;
5871;SDS011;2962;51.312;7.378;2022-07-29T12:02:40;2.53;;;2.43;;
5871;SDS011;2962;51.312;7.378;2022-07-29T12:05:07;2.77;;;2.57;;
5871;SDS011;2962;51.312;7.378;2022-07-29T12:07:33;7.90;;;3.57;;
5871;SDS011;2962;51.312;7.378;2022-07-29T12:09:59;11.20;;;2.90;;
5871;SDS011;2962;51.312;7.378;2022-07-29T12:12:26;5.93;;;3.17;;
5871;SDS011;2962;51.312;7.378;2022-07-29T12:14:51;11.10;;;3.03;;
5871;SDS011;2962;51.312;7.378;2022-07-29T12:17:26;3.23;;;2.97;;
5871;SDS011;2962;51.312;7.378;2022-07-29T12:19:53;7.73;;;3.50;;
5871;SDS011;2962;51.312;7.378;2022-07-29T12:22:29;15.27;;;3.23;;
5871;SDS011;2962;51.312;7.378;2022-07-29T12:25:00;4.23;;;2.90;;
5871;SDS011;2962;51.312;7.378;2022-07-29T12:27:27;10.07;;;3.40;;
5871;SDS011;2962;51.312;7.378;2022-07-29T12:29:58;6.07;;;3.23;;
5871;SDS011;2962;51.312;7.378;2022-07-29T12:32:38;6.23;;;3.63;;
5871;SDS011;2962;51.312;7.378;2022-07-29T12:35:10;8.00;;;3.43;;
5871;SDS011;2962;51.312;7.378;2022-07-29T12:37:40;3.50;;;3.07;;
5871;SDS011;2962;51.312;7.378;2022-07-29T12:40:08;10.50;;;3.60;;
5871;SDS011;2962;51.312;7.378;2022-07-29T12:42:35;7.40;;;4.13;;
5871;SDS011;2962;51.312;7.378;2022-07-29T12:45:01;3.83;;;3.13;;
5871;SDS011;2962;51.312;7.378;2022-07-29T12:47:27;10.17;;;4.63;;
5871;SDS011;2962;51.312;7.378;2022-07-29T12:50:09;7.93;;;4.50;;
5871;SDS011;2962;51.312;7.378;2022-07-29T12:52:34;6.63;;;3.60;;
5871;SDS011;2962;51.312;7.378;2022-07-29T12:55:00;6.13;;;3.80;;
5871;SDS011;2962;51.312;7.378;2022-07-29T12:57:26;5.10;;;3.80;;
5871;SDS011;2962;51.312;7.378;2022-07-29T13:00:08;6.40;;;4.30;;
5871;SDS011;2962;51.312;7.378;2022-07-29T13:02:37;9.97;;;3.40;;
5871;SDS011;2962;51.312;7.378;2022-07-29T13:05:03;6.40;;;4.73;;
5871;SDS011;2962;51.312;7.378;2022-07-29T13:07:31;5.20;;;4.70;;
5871;SDS011;2962;51.312;7.378;2022-07-29T13:13:07;10.97;;;4.20;;
5871;SDS011;2962;51.312;7.378;2022-07-29T13:15:35;12.00;;;5.30;;
5871;SDS011;2962;51.312;7.378;2022-07-29T13:18:02;11.70;;;5.40;;
5871;SDS011;2962;51.312;7.378;2022-07-29T13:20:29;4.90;;;4.50;;
5871;SDS011;2962;51.312;7.378;2022-07-29T13:22:55;9.80;;;5.00;;
5871;SDS011;2962;51.312;7.378;2022-07-29T13:25:31;4.90;;;4.57;;
5871;SDS011;2962;51.312;7.378;2022-07-29T13:27:57;8.70;;;4.30;;
5871;SDS011;2962;51.312;7.378;2022-07-29T13:30:24;5.23;;;4.53;;
5871;SDS011;2962;51.312;7.378;2022-07-29T13:32:51;7.20;;;4.77;;
5871;SDS011;2962;51.312;7.378;2022-07-29T13:35:17;7.17;;;4.33;;
5871;SDS011;2962;51.312;7.378;2022-07-29T13:37:43;7.90;;;4.20;;
5871;SDS011;2962;51.312;7.378;2022-07-29T13:40:09;10.43;;;4.63;;
5871;SDS011;2962;51.312;7.378;2022-07-29T13:42:35;5.00;;;3.90;;
5871;SDS011;2962;51.312;7.378;2022-07-29T13:45:01;8.97;;;4.67;;
5871;SDS011;2962;51.312;7.378;2022-07-29T13:47:26;10.73;;;5.13;;
5871;SDS011;2962;51.312;7.378;2022-07-29T13:49:53;4.40;;;4.03;;
5871;SDS011;2962;51.312;7.378;2022-07-29T13:52:19;5.00;;;3.80;;
5871;SDS011;2962;51.312;7.378;2022-07-29T13:54:44;6.83;;;3.33;;
5871;SDS011;2962;51.312;7.378;2022-07-29T13:57:10;4.57;;;3.43;;
5871;SDS011;2962;51.312;7.378;2022-07-29T13:59:36;7.03;;;3.60;;
5871;SDS011;2962;51.312;7.378;2022-07-29T14:02:02;4.80;;;3.40;;
5871;SDS011;2962;51.312;7.378;2022-07-29T14:04:27;10.73;;;3.70;;
5871;SDS011;2962;51.312;7.378;2022-07-29T14:06:53;8.60;;;3.30;;
5871;SDS011;2962;51.312;7.378;2022-07-29T14:09:18;10.17;;;3.13;;
5871;SDS011;2962;51.312;7.378;2022-07-29T14:11:43;11.70;;;3.47;;
5871;SDS011;2962;51.312;7.378;2022-07-29T14:14:10;3.27;;;2.97;;
5871;SDS011;2962;51.312;7.378;2022-07-29T14:16:36;5.50;;;3.40;;
5871;SDS011;2962;51.312;7.378;2022-07-29T14:19:02;5.83;;;3.10;;
5871;SDS011;2962;51.312;7.378;2022-07-29T14:21:27;10.03;;;2.60;;
5871;SDS011;2962;51.312;7.378;2022-07-29T14:23:53;3.33;;;2.97;;
5871;SDS011;2962;51.312;7.378;2022-07-29T14:26:19;4.80;;;3.30;;
5871;SDS011;2962;51.312;7.378;2022-07-29T14:28:45;4.80;;;3.67;;
5871;SDS011;2962;51.312;7.378;2022-07-29T14:31:11;3.83;;;3.20;;
5871;SDS011;2962;51.312;7.378;2022-07-29T14:33:36;5.40;;;3.20;;
5871;SDS011;2962;51.312;7.378;2022-07-29T14:36:02;3.60;;;2.70;;
5871;SDS011;2962;51.312;7.378;2022-07-29T14:38:27;6.27;;;3.50;;
5871;SDS011;2962;51.312;7.378;2022-07-29T14:40:53;7.93;;;2.87;;
5871;SDS011;2962;51.312;7.378;2022-07-29T14:43:18;3.87;;;3.30;;
5871;SDS011;2962;51.312;7.378;2022-07-29T14:45:43;7.87;;;3.23;;
5871;SDS011;2962;51.312;7.378;2022-07-29T14:48:09;3.90;;;3.47;;
5871;SDS011;2962;51.312;7.378;2022-07-29T14:50:36;3.73;;;3.20;;
5871;SDS011;2962;51.312;7.378;2022-07-29T14:53:01;6.30;;;2.83;;
5871;SDS011;2962;51.312;7.378;2022-07-29T14:55:27;5.10;;;2.43;;
5871;SDS011;2962;51.312;7.378;2022-07-29T14:57:53;6.03;;;2.80;;
5871;SDS011;2962;51.312;7.378;2022-07-29T15:00:18;9.03;;;2.90;;
5871;SDS011;2962;51.312;7.378;2022-07-29T15:02:45;3.87;;;2.57;;
5871;SDS011;2962;51.312;7.378;2022-07-29T15:05:11;5.43;;;2.60;;
5871;SDS011;2962;51.312;7.378;2022-07-29T15:07:36;8.60;;;2.63;;
5871;SDS011;2962;51.312;7.378;2022-07-29T15:10:01;5.10;;;2.90;;
5871;SDS011;2962;51.312;7.378;2022-07-29T15:12:27;2.60;;;2.27;;
5871;SDS011;2962;51.312;7.378;2022-07-29T15:14:52;7.00;;;2.67;;
5871;SDS011;2962;51.312;7.378;2022-07-29T15:17:18;8.13;;;2.77;;
5871;SDS011;2962;51.312;7.378;2022-07-29T15:19:43;6.20;;;2.60;;
5871;SDS011;2962;51.312;7.378;2022-07-29T15:22:09;5.63;;;2.60;;
5871;SDS011;2962;51.312;7.378;2022-07-29T15:24:34;2.43;;;2.23;;
5871;SDS011;2962;51.312;7.378;2022-07-29T15:26:59;3.27;;;2.80;;
5871;SDS011;2962;51.312;7.378;2022-07-29T15:29:24;3.00;;;2.83;;
5871;SDS011;2962;51.312;7.378;2022-07-29T15:31:50;2.57;;;2.40;;
5871;SDS011;2962;51.312;7.378;2022-07-29T15:34:15;3.33;;;3.23;;
5871;SDS011;2962;51.312;7.378;2022-07-29T15:36:40;4.67;;;2.47;;
5871;SDS011;2962;51.312;7.378;2022-07-29T15:39:06;3.33;;;2.90;;
5871;SDS011;2962;51.312;7.378;2022-07-29T15:41:32;9.47;;;3.03;;
5871;SDS011;2962;51.312;7.378;2022-07-29T15:43:58;4.20;;;2.60;;
5871;SDS011;2962;51.312;7.378;2022-07-29T15:46:23;12.30;;;2.77;;
5871;SDS011;2962;51.312;7.378;2022-07-29T15:49:07;3.10;;;2.90;;
5871;SDS011;2962;51.312;7.378;2022-07-29T15:51:33;5.27;;;2.87;;
5871;SDS011;2962;51.312;7.378;2022-07-29T15:54:00;4.70;;;2.97;;